sensor_id;sensor_type;location;lat;lon;timestamp;P1;durP1;ratioP1;P2;durP2;ratioP2
5791;SDS011;2922;53.482;10.006;2023-07-31T00:02:14;7.43;;;1.90;;
5791;SDS011;2922;53.482;10.006;2023-07-31T00:04:40;9.57;;;1.70;;
5791;SDS011;2922;53.482;10.006;2023-07-31T00:07:05;3.43;;;1.50;;
5791;SDS011;2922;53.482;10.006;2023-07-31T00:09:32;5.83;;;1.60;;
5791;SDS011;2922;53.482;10.006;2023-07-31T00:11:57;10.10;;;2.40;;
5791;SDS011;2922;53.482;10.006;2023-07-31T00:14:23;5.60;;;2.17;;
5791;SDS011;2922;53.482;10.006;2023-07-31T00:16:49;3.60;;;1.63;;
5791;SDS011;2922;53.482;10.006;2023-07-31T00:19:14;3.10;;;2.00;;
5791;SDS011;2922;53.482;10.006;2023-07-31T00:21:40;4.17;;;1.60;;
5791;SDS011;2922;53.482;10.006;2023-07-31T00:24:05;5.17;;;1.87;;
5791;SDS011;2922;53.482;10.006;2023-07-31T00:26:31;4.70;;;1.50;;
5791;SDS011;2922;53.482;10.006;2023-07-31T00:28:56;6.63;;;2.13;;
5791;SDS011;2922;53.482;10.006;2023-07-31T00:31:22;4.13;;;1.60;;
5791;SDS011;2922;53.482;10.006;2023-07-31T00:33:48;7.20;;;1.50;;
5791;SDS011;2922;53.482;10.006;2023-07-31T00:36:13;5.90;;;1.93;;
5791;SDS011;2922;53.482;10.006;2023-07-31T00:38:39;3.77;;;1.77;;
5791;SDS011;2922;53.482;10.006;2023-07-31T00:41:04;9.57;;;1.93;;
5791;SDS011;2922;53.482;10.006;2023-07-31T00:43:30;6.60;;;1.90;;
5791;SDS011;2922;53.482;10.006;2023-07-31T00:45:55;3.33;;;1.63;;
5791;SDS011;2922;53.482;10.006;2023-07-31T00:48:21;8.93;;;2.10;;
5791;SDS011;2922;53.482;10.006;2023-07-31T00:50:47;4.67;;;1.83;;
5791;SDS011;2922;53.482;10.006;2023-07-31T00:53:13;15.77;;;2.13;;
5791;SDS011;2922;53.482;10.006;2023-07-31T00:55:38;5.60;;;1.63;;
5791;SDS011;2922;53.482;10.006;2023-07-31T00:58:04;7.27;;;2.40;;
5791;SDS011;2922;53.482;10.006;2023-07-31T01:00:30;6.30;;;2.00;;
5791;SDS011;2922;53.482;10.006;2023-07-31T01:02:55;6.47;;;1.73;;
5791;SDS011;2922;53.482;10.006;2023-07-31T01:08:24;7.30;;;1.70;;
5791;SDS011;2922;53.482;10.006;2023-07-31T01:11:02;4.73;;;1.80;;
5791;SDS011;2922;53.482;10.006;2023-07-31T01:13:42;6.60;;;1.90;;
5791;SDS011;2922;53.482;10.006;2023-07-31T01:16:09;6.27;;;1.70;;
5791;SDS011;2922;53.482;10.006;2023-07-31T01:18:35;13.00;;;2.83;;
5791;SDS011;2922;53.482;10.006;2023-07-31T01:21:06;9.30;;;2.00;;
5791;SDS011;2922;53.482;10.006;2023-07-31T01:23:51;2.63;;;1.80;;
5791;SDS011;2922;53.482;10.006;2023-07-31T01:26:33;6.60;;;2.00;;
5791;SDS011;2922;53.482;10.006;2023-07-31T01:29:02;8.40;;;2.47;;
5791;SDS011;2922;53.482;10.006;2023-07-31T01:31:38;7.63;;;2.33;;
5791;SDS011;2922;53.482;10.006;2023-07-31T01:34:06;3.73;;;2.13;;
5791;SDS011;2922;53.482;10.006;2023-07-31T01:36:36;8.13;;;2.13;;
5791;SDS011;2922;53.482;10.006;2023-07-31T01:39:01;6.00;;;2.17;;
5791;SDS011;2922;53.482;10.006;2023-07-31T01:41:28;5.90;;;2.03;;
5791;SDS011;2922;53.482;10.006;2023-07-31T01:43:54;9.03;;;1.97;;
5791;SDS011;2922;53.482;10.006;2023-07-31T01:46:20;5.90;;;2.37;;
5791;SDS011;2922;53.482;10.006;2023-07-31T01:48:45;5.70;;;1.80;;
5791;SDS011;2922;53.482;10.006;2023-07-31T01:51:11;2.60;;;1.83;;
5791;SDS011;2922;53.482;10.006;2023-07-31T01:53:36;4.70;;;2.10;;
5791;SDS011;2922;53.482;10.006;2023-07-31T01:56:02;7.30;;;2.07;;
5791;SDS011;2922;53.482;10.006;2023-07-31T01:58:28;9.23;;;2.60;;
5791;SDS011;2922;53.482;10.006;2023-07-31T02:00:53;8.77;;;2.77;;
5791;SDS011;2922;53.482;10.006;2023-07-31T02:03:19;6.63;;;2.43;;
5791;SDS011;2922;53.482;10.006;2023-07-31T02:05:45;5.03;;;2.03;;
5791;SDS011;2922;53.482;10.006;2023-07-31T02:08:11;3.83;;;2.43;;
5791;SDS011;2922;53.482;10.006;2023-07-31T02:10:37;5.30;;;2.20;;
5791;SDS011;2922;53.482;10.006;2023-07-31T02:13:03;14.53;;;2.80;;
5791;SDS011;2922;53.482;10.006;2023-07-31T02:15:29;7.30;;;2.00;;
5791;SDS011;2922;53.482;10.006;2023-07-31T02:17:55;7.03;;;2.83;;
5791;SDS011;2922;53.482;10.006;2023-07-31T02:20:21;5.83;;;2.27;;
5791;SDS011;2922;53.482;10.006;2023-07-31T02:22:46;14.50;;;3.80;;
5791;SDS011;2922;53.482;10.006;2023-07-31T02:25:12;6.20;;;2.37;;
5791;SDS011;2922;53.482;10.006;2023-07-31T02:27:38;7.30;;;2.40;;
5791;SDS011;2922;53.482;10.006;2023-07-31T02:30:03;5.20;;;2.20;;
5791;SDS011;2922;53.482;10.006;2023-07-31T02:32:29;4.00;;;2.23;;
5791;SDS011;2922;53.482;10.006;2023-07-31T02:34:55;8.63;;;3.13;;
5791;SDS011;2922;53.482;10.006;2023-07-31T02:37:20;5.67;;;2.70;;
5791;SDS011;2922;53.482;10.006;2023-07-31T02:39:46;15.63;;;2.70;;
5791;SDS011;2922;53.482;10.006;2023-07-31T02:42:12;6.63;;;2.70;;
5791;SDS011;2922;53.482;10.006;2023-07-31T02:44:38;9.23;;;2.83;;
5791;SDS011;2922;53.482;10.006;2023-07-31T02:47:03;9.10;;;2.60;;
5791;SDS011;2922;53.482;10.006;2023-07-31T02:49:29;6.57;;;2.47;;
5791;SDS011;2922;53.482;10.006;2023-07-31T02:51:55;3.50;;;2.13;;
5791;SDS011;2922;53.482;10.006;2023-07-31T02:54:20;7.43;;;3.00;;
5791;SDS011;2922;53.482;10.006;2023-07-31T02:56:46;6.17;;;2.67;;
5791;SDS011;2922;53.482;10.006;2023-07-31T02:59:12;6.80;;;2.17;;
5791;SDS011;2922;53.482;10.006;2023-07-31T03:01:38;8.77;;;2.40;;
5791;SDS011;2922;53.482;10.006;2023-07-31T03:04:04;5.00;;;3.20;;
5791;SDS011;2922;53.482;10.006;2023-07-31T03:06:29;7.27;;;2.43;;
5791;SDS011;2922;53.482;10.006;2023-07-31T03:08:55;5.43;;;2.23;;
5791;SDS011;2922;53.482;10.006;2023-07-31T03:11:20;4.33;;;2.10;;
5791;SDS011;2922;53.482;10.006;2023-07-31T03:13:46;5.93;;;2.33;;
5791;SDS011;2922;53.482;10.006;2023-07-31T03:16:12;6.73;;;2.70;;
5791;SDS011;2922;53.482;10.006;2023-07-31T03:18:37;4.33;;;2.47;;
5791;SDS011;2922;53.482;10.006;2023-07-31T03:21:03;7.90;;;2.90;;
5791;SDS011;2922;53.482;10.006;2023-07-31T03:23:29;5.47;;;2.90;;
5791;SDS011;2922;53.482;10.006;2023-07-31T03:25:58;4.87;;;2.63;;
5791;SDS011;2922;53.482;10.006;2023-07-31T03:28:25;5.97;;;2.50;;
5791;SDS011;2922;53.482;10.006;2023-07-31T03:30:51;7.30;;;2.63;;
5791;SDS011;2922;53.482;10.006;2023-07-31T03:33:18;6.30;;;2.60;;
5791;SDS011;2922;53.482;10.006;2023-07-31T03:35:44;5.33;;;2.77;;
5791;SDS011;2922;53.482;10.006;2023-07-31T03:38:09;7.17;;;2.37;;
5791;SDS011;2922;53.482;10.006;2023-07-31T03:40:35;8.20;;;2.77;;
5791;SDS011;2922;53.482;10.006;2023-07-31T03:43:01;3.90;;;2.53;;
5791;SDS011;2922;53.482;10.006;2023-07-31T03:45:26;3.17;;;2.50;;
5791;SDS011;2922;53.482;10.006;2023-07-31T03:47:52;6.20;;;2.90;;
5791;SDS011;2922;53.482;10.006;2023-07-31T03:50:19;8.80;;;2.90;;
5791;SDS011;2922;53.482;10.006;2023-07-31T03:52:45;5.27;;;3.00;;
5791;SDS011;2922;53.482;10.006;2023-07-31T03:55:10;4.40;;;2.40;;
5791;SDS011;2922;53.482;10.006;2023-07-31T03:57:36;2.73;;;2.33;;
5791;SDS011;2922;53.482;10.006;2023-07-31T04:00:01;4.40;;;2.87;;
5791;SDS011;2922;53.482;10.006;2023-07-31T04:02:27;5.63;;;3.00;;
5791;SDS011;2922;53.482;10.006;2023-07-31T04:04:53;3.90;;;2.90;;
5791;SDS011;2922;53.482;10.006;2023-07-31T04:07:18;3.17;;;2.23;;
5791;SDS011;2922;53.482;10.006;2023-07-31T04:09:44;4.83;;;2.70;;
5791;SDS011;2922;53.482;10.006;2023-07-31T04:12:09;4.80;;;2.80;;
5791;SDS011;2922;53.482;10.006;2023-07-31T04:14:35;8.10;;;3.07;;
5791;SDS011;2922;53.482;10.006;2023-07-31T04:17:01;7.20;;;2.37;;
5791;SDS011;2922;53.482;10.006;2023-07-31T04:19:26;2.33;;;1.93;;
5791;SDS011;2922;53.482;10.006;2023-07-31T04:21:52;2.53;;;2.33;;
5791;SDS011;2922;53.482;10.006;2023-07-31T04:24:17;4.00;;;2.40;;
5791;SDS011;2922;53.482;10.006;2023-07-31T04:26:49;3.80;;;2.10;;
5791;SDS011;2922;53.482;10.006;2023-07-31T04:29:18;5.00;;;2.40;;
5791;SDS011;2922;53.482;10.006;2023-07-31T04:31:43;3.60;;;2.27;;
5791;SDS011;2922;53.482;10.006;2023-07-31T04:34:09;5.77;;;2.90;;
5791;SDS011;2922;53.482;10.006;2023-07-31T04:36:34;8.73;;;2.43;;
5791;SDS011;2922;53.482;10.006;2023-07-31T04:39:00;12.77;;;2.87;;
5791;SDS011;2922;53.482;10.006;2023-07-31T04:41:26;3.10;;;2.10;;
5791;SDS011;2922;53.482;10.006;2023-07-31T04:43:52;3.03;;;2.23;;
5791;SDS011;2922;53.482;10.006;2023-07-31T04:46:17;3.77;;;2.10;;
5791;SDS011;2922;53.482;10.006;2023-07-31T04:48:43;3.20;;;2.50;;
5791;SDS011;2922;53.482;10.006;2023-07-31T04:51:08;6.60;;;2.87;;
5791;SDS011;2922;53.482;10.006;2023-07-31T04:53:34;3.63;;;2.67;;
5791;SDS011;2922;53.482;10.006;2023-07-31T04:56:00;4.90;;;2.70;;
5791;SDS011;2922;53.482;10.006;2023-07-31T04:58:26;2.00;;;1.80;;
5791;SDS011;2922;53.482;10.006;2023-07-31T05:00:52;3.00;;;2.30;;
5791;SDS011;2922;53.482;10.006;2023-07-31T05:03:17;2.93;;;2.23;;
5791;SDS011;2922;53.482;10.006;2023-07-31T05:05:43;3.40;;;2.40;;
5791;SDS011;2922;53.482;10.006;2023-07-31T05:08:08;4.90;;;2.37;;
5791;SDS011;2922;53.482;10.006;2023-07-31T05:10:34;3.43;;;1.90;;
5791;SDS011;2922;53.482;10.006;2023-07-31T05:13:00;2.70;;;2.03;;
5791;SDS011;2922;53.482;10.006;2023-07-31T05:15:25;4.77;;;2.67;;
5791;SDS011;2922;53.482;10.006;2023-07-31T05:17:51;3.20;;;2.13;;
5791;SDS011;2922;53.482;10.006;2023-07-31T05:20:16;3.37;;;2.37;;
5791;SDS011;2922;53.482;10.006;2023-07-31T05:22:42;2.80;;;2.60;;
5791;SDS011;2922;53.482;10.006;2023-07-31T05:25:08;2.80;;;2.50;;
5791;SDS011;2922;53.482;10.006;2023-07-31T05:27:33;4.33;;;2.97;;
5791;SDS011;2922;53.482;10.006;2023-07-31T05:29:59;6.50;;;2.93;;
5791;SDS011;2922;53.482;10.006;2023-07-31T05:32:25;3.40;;;2.53;;
5791;SDS011;2922;53.482;10.006;2023-07-31T05:34:51;4.13;;;2.40;;
5791;SDS011;2922;53.482;10.006;2023-07-31T05:37:17;4.73;;;2.90;;
5791;SDS011;2922;53.482;10.006;2023-07-31T05:39:43;4.37;;;3.10;;
5791;SDS011;2922;53.482;10.006;2023-07-31T05:42:08;3.47;;;2.80;;
5791;SDS011;2922;53.482;10.006;2023-07-31T05:44:34;6.87;;;3.67;;
5791;SDS011;2922;53.482;10.006;2023-07-31T05:46:59;4.23;;;2.40;;
5791;SDS011;2922;53.482;10.006;2023-07-31T05:49:25;6.37;;;3.20;;
5791;SDS011;2922;53.482;10.006;2023-07-31T05:51:50;3.57;;;3.07;;
5791;SDS011;2922;53.482;10.006;2023-07-31T05:54:16;4.10;;;3.40;;
5791;SDS011;2922;53.482;10.006;2023-07-31T05:56:41;3.80;;;2.50;;
5791;SDS011;2922;53.482;10.006;2023-07-31T05:59:08;6.90;;;3.07;;
5791;SDS011;2922;53.482;10.006;2023-07-31T06:01:35;2.70;;;2.50;;
5791;SDS011;2922;53.482;10.006;2023-07-31T06:04:00;2.93;;;2.60;;
5791;SDS011;2922;53.482;10.006;2023-07-31T06:06:27;2.93;;;2.63;;
5791;SDS011;2922;53.482;10.006;2023-07-31T06:08:53;3.20;;;2.50;;
5791;SDS011;2922;53.482;10.006;2023-07-31T06:11:19;2.57;;;2.33;;
5791;SDS011;2922;53.482;10.006;2023-07-31T06:13:45;3.00;;;2.70;;
5791;SDS011;2922;53.482;10.006;2023-07-31T06:16:12;2.70;;;2.17;;
5791;SDS011;2922;53.482;10.006;2023-07-31T06:18:38;3.00;;;2.30;;
5791;SDS011;2922;53.482;10.006;2023-07-31T06:21:04;3.20;;;2.60;;
5791;SDS011;2922;53.482;10.006;2023-07-31T06:23:30;2.73;;;2.37;;
5791;SDS011;2922;53.482;10.006;2023-07-31T06:25:55;3.70;;;3.10;;
5791;SDS011;2922;53.482;10.006;2023-07-31T06:28:21;3.40;;;2.47;;
5791;SDS011;2922;53.482;10.006;2023-07-31T06:30:46;2.70;;;2.50;;
5791;SDS011;2922;53.482;10.006;2023-07-31T06:33:12;3.90;;;2.50;;
5791;SDS011;2922;53.482;10.006;2023-07-31T06:35:37;3.77;;;2.57;;
5791;SDS011;2922;53.482;10.006;2023-07-31T06:38:03;3.07;;;2.70;;
5791;SDS011;2922;53.482;10.006;2023-07-31T06:40:29;3.00;;;2.70;;
5791;SDS011;2922;53.482;10.006;2023-07-31T06:42:55;2.40;;;2.20;;
5791;SDS011;2922;53.482;10.006;2023-07-31T06:45:20;3.73;;;2.50;;
5791;SDS011;2922;53.482;10.006;2023-07-31T06:47:47;2.43;;;2.23;;
5791;SDS011;2922;53.482;10.006;2023-07-31T06:50:12;2.40;;;2.03;;
5791;SDS011;2922;53.482;10.006;2023-07-31T06:52:38;2.23;;;2.03;;
5791;SDS011;2922;53.482;10.006;2023-07-31T06:55:14;3.80;;;2.43;;
5791;SDS011;2922;53.482;10.006;2023-07-31T06:57:48;3.30;;;2.00;;
5791;SDS011;2922;53.482;10.006;2023-07-31T07:00:15;6.77;;;2.93;;
5791;SDS011;2922;53.482;10.006;2023-07-31T07:02:42;2.43;;;1.97;;
5791;SDS011;2922;53.482;10.006;2023-07-31T07:05:07;2.30;;;2.00;;
5791;SDS011;2922;53.482;10.006;2023-07-31T07:07:34;2.20;;;2.10;;
5791;SDS011;2922;53.482;10.006;2023-07-31T07:10:00;2.40;;;1.80;;
5791;SDS011;2922;53.482;10.006;2023-07-31T07:12:26;2.27;;;2.03;;
5791;SDS011;2922;53.482;10.006;2023-07-31T07:14:54;2.50;;;1.60;;
5791;SDS011;2922;53.482;10.006;2023-07-31T07:17:19;1.63;;;1.30;;
5791;SDS011;2922;53.482;10.006;2023-07-31T07:19:45;1.73;;;1.63;;
5791;SDS011;2922;53.482;10.006;2023-07-31T07:22:12;1.60;;;1.37;;
5791;SDS011;2922;53.482;10.006;2023-07-31T07:24:38;1.57;;;1.47;;
5791;SDS011;2922;53.482;10.006;2023-07-31T07:27:03;2.20;;;1.20;;
5791;SDS011;2922;53.482;10.006;2023-07-31T07:29:29;2.90;;;1.70;;
5791;SDS011;2922;53.482;10.006;2023-07-31T07:31:55;1.37;;;1.27;;
5791;SDS011;2922;53.482;10.006;2023-07-31T07:34:22;1.43;;;1.33;;
5791;SDS011;2922;53.482;10.006;2023-07-31T07:36:50;2.20;;;1.50;;
5791;SDS011;2922;53.482;10.006;2023-07-31T07:39:16;1.57;;;1.47;;
5791;SDS011;2922;53.482;10.006;2023-07-31T07:41:42;3.20;;;2.23;;
5791;SDS011;2922;53.482;10.006;2023-07-31T07:44:07;2.73;;;1.50;;
5791;SDS011;2922;53.482;10.006;2023-07-31T07:46:33;2.20;;;1.83;;
5791;SDS011;2922;53.482;10.006;2023-07-31T07:48:58;2.00;;;1.77;;
5791;SDS011;2922;53.482;10.006;2023-07-31T07:51:24;1.90;;;1.77;;
5791;SDS011;2922;53.482;10.006;2023-07-31T07:53:50;2.70;;;1.50;;
5791;SDS011;2922;53.482;10.006;2023-07-31T07:56:15;2.10;;;1.80;;
5791;SDS011;2922;53.482;10.006;2023-07-31T07:58:41;1.53;;;1.43;;
5791;SDS011;2922;53.482;10.006;2023-07-31T08:01:07;2.40;;;1.60;;
5791;SDS011;2922;53.482;10.006;2023-07-31T08:03:32;1.47;;;1.37;;
5791;SDS011;2922;53.482;10.006;2023-07-31T08:05:58;1.70;;;1.60;;
5791;SDS011;2922;53.482;10.006;2023-07-31T08:08:24;1.30;;;1.20;;
5791;SDS011;2922;53.482;10.006;2023-07-31T08:10:50;1.50;;;1.40;;
5791;SDS011;2922;53.482;10.006;2023-07-31T08:13:16;1.50;;;1.40;;
5791;SDS011;2922;53.482;10.006;2023-07-31T08:15:41;1.20;;;1.10;;
5791;SDS011;2922;53.482;10.006;2023-07-31T08:18:07;2.47;;;1.20;;
5791;SDS011;2922;53.482;10.006;2023-07-31T08:20:33;1.43;;;1.33;;
5791;SDS011;2922;53.482;10.006;2023-07-31T08:22:59;2.63;;;1.37;;
5791;SDS011;2922;53.482;10.006;2023-07-31T08:25:25;1.17;;;1.07;;
5791;SDS011;2922;53.482;10.006;2023-07-31T08:27:50;5.70;;;1.50;;
5791;SDS011;2922;53.482;10.006;2023-07-31T08:30:17;2.50;;;1.30;;
5791;SDS011;2922;53.482;10.006;2023-07-31T08:32:43;1.37;;;1.27;;
5791;SDS011;2922;53.482;10.006;2023-07-31T08:35:09;2.03;;;1.00;;
5791;SDS011;2922;53.482;10.006;2023-07-31T08:37:35;0.80;;;0.80;;
5791;SDS011;2922;53.482;10.006;2023-07-31T08:40:01;0.80;;;0.70;;
5791;SDS011;2922;53.482;10.006;2023-07-31T08:42:27;0.80;;;0.80;;
5791;SDS011;2922;53.482;10.006;2023-07-31T08:44:53;1.17;;;0.90;;
5791;SDS011;2922;53.482;10.006;2023-07-31T08:47:20;1.20;;;1.03;;
5791;SDS011;2922;53.482;10.006;2023-07-31T08:49:46;1.43;;;0.90;;
5791;SDS011;2922;53.482;10.006;2023-07-31T08:52:13;0.87;;;0.70;;
5791;SDS011;2922;53.482;10.006;2023-07-31T08:54:39;1.43;;;0.90;;
5791;SDS011;2922;53.482;10.006;2023-07-31T08:57:05;0.80;;;0.77;;
5791;SDS011;2922;53.482;10.006;2023-07-31T08:59:32;1.13;;;0.77;;
5791;SDS011;2922;53.482;10.006;2023-07-31T09:02:05;1.00;;;0.63;;
5791;SDS011;2922;53.482;10.006;2023-07-31T09:04:32;1.00;;;0.90;;
5791;SDS011;2922;53.482;10.006;2023-07-31T09:07:00;0.70;;;0.60;;
5791;SDS011;2922;53.482;10.006;2023-07-31T09:09:28;0.70;;;0.70;;
5791;SDS011;2922;53.482;10.006;2023-07-31T09:11:54;0.90;;;0.70;;
5791;SDS011;2922;53.482;10.006;2023-07-31T09:14:20;0.83;;;0.80;;
5791;SDS011;2922;53.482;10.006;2023-07-31T09:16:54;0.83;;;0.83;;
5791;SDS011;2922;53.482;10.006;2023-07-31T09:19:32;1.10;;;0.80;;
5791;SDS011;2922;53.482;10.006;2023-07-31T09:22:01;0.83;;;0.70;;
5791;SDS011;2922;53.482;10.006;2023-07-31T09:24:28;0.70;;;0.70;;
5791;SDS011;2922;53.482;10.006;2023-07-31T09:26:55;2.00;;;1.47;;
5791;SDS011;2922;53.482;10.006;2023-07-31T09:29:21;0.80;;;0.70;;
5791;SDS011;2922;53.482;10.006;2023-07-31T09:31:47;1.60;;;1.00;;
5791;SDS011;2922;53.482;10.006;2023-07-31T09:34:13;2.17;;;1.10;;
5791;SDS011;2922;53.482;10.006;2023-07-31T09:36:48;1.73;;;0.70;;
5791;SDS011;2922;53.482;10.006;2023-07-31T09:39:15;1.57;;;0.87;;
5791;SDS011;2922;53.482;10.006;2023-07-31T09:41:43;3.40;;;1.10;;
5791;SDS011;2922;53.482;10.006;2023-07-31T09:44:10;1.20;;;0.97;;
5791;SDS011;2922;53.482;10.006;2023-07-31T09:46:36;2.40;;;0.80;;
5791;SDS011;2922;53.482;10.006;2023-07-31T09:51:35;5.57;;;1.07;;
5791;SDS011;2922;53.482;10.006;2023-07-31T09:54:06;6.77;;;1.20;;
5791;SDS011;2922;53.482;10.006;2023-07-31T09:56:44;0.97;;;0.80;;
5791;SDS011;2922;53.482;10.006;2023-07-31T09:59:17;0.77;;;0.77;;
5791;SDS011;2922;53.482;10.006;2023-07-31T10:01:44;2.17;;;1.00;;
5791;SDS011;2922;53.482;10.006;2023-07-31T10:04:11;1.00;;;0.70;;
5791;SDS011;2922;53.482;10.006;2023-07-31T10:06:38;0.80;;;0.60;;
5791;SDS011;2922;53.482;10.006;2023-07-31T10:09:05;2.47;;;1.17;;
5791;SDS011;2922;53.482;10.006;2023-07-31T10:11:33;1.67;;;0.80;;
5791;SDS011;2922;53.482;10.006;2023-07-31T10:14:08;1.00;;;0.90;;
5791;SDS011;2922;53.482;10.006;2023-07-31T10:16:37;2.13;;;1.10;;
5791;SDS011;2922;53.482;10.006;2023-07-31T10:19:04;2.03;;;1.10;;
5791;SDS011;2922;53.482;10.006;2023-07-31T10:21:31;2.47;;;1.00;;
5791;SDS011;2922;53.482;10.006;2023-07-31T10:24:00;2.40;;;1.50;;
5791;SDS011;2922;53.482;10.006;2023-07-31T10:26:28;3.50;;;2.37;;
5791;SDS011;2922;53.482;10.006;2023-07-31T10:28:55;9.47;;;4.00;;
5791;SDS011;2922;53.482;10.006;2023-07-31T10:31:22;11.23;;;5.33;;
5791;SDS011;2922;53.482;10.006;2023-07-31T10:33:48;14.07;;;5.63;;
5791;SDS011;2922;53.482;10.006;2023-07-31T10:36:18;12.97;;;6.13;;
5791;SDS011;2922;53.482;10.006;2023-07-31T10:38:45;13.70;;;6.10;;
5791;SDS011;2922;53.482;10.006;2023-07-31T10:41:11;16.13;;;7.13;;
5791;SDS011;2922;53.482;10.006;2023-07-31T10:43:37;13.70;;;6.23;;
5791;SDS011;2922;53.482;10.006;2023-07-31T10:46:06;13.07;;;6.27;;
5791;SDS011;2922;53.482;10.006;2023-07-31T10:48:41;13.83;;;6.63;;
5791;SDS011;2922;53.482;10.006;2023-07-31T10:51:07;18.60;;;6.73;;
5791;SDS011;2922;53.482;10.006;2023-07-31T10:53:35;14.07;;;6.23;;
5791;SDS011;2922;53.482;10.006;2023-07-31T10:56:02;17.17;;;6.90;;
5791;SDS011;2922;53.482;10.006;2023-07-31T10:58:30;14.07;;;7.00;;
5791;SDS011;2922;53.482;10.006;2023-07-31T11:01:00;15.13;;;6.40;;
5791;SDS011;2922;53.482;10.006;2023-07-31T11:06:17;17.53;;;7.27;;
5791;SDS011;2922;53.482;10.006;2023-07-31T11:08:43;12.63;;;5.60;;
5791;SDS011;2922;53.482;10.006;2023-07-31T11:11:11;8.20;;;4.60;;
5791;SDS011;2922;53.482;10.006;2023-07-31T11:13:44;9.10;;;4.27;;
5791;SDS011;2922;53.482;10.006;2023-07-31T11:16:14;6.17;;;3.40;;
5791;SDS011;2922;53.482;10.006;2023-07-31T11:18:40;6.57;;;3.50;;
5791;SDS011;2922;53.482;10.006;2023-07-31T11:21:18;5.60;;;3.30;;
5791;SDS011;2922;53.482;10.006;2023-07-31T11:23:51;6.63;;;3.40;;
5791;SDS011;2922;53.482;10.006;2023-07-31T11:26:19;11.10;;;3.83;;
5791;SDS011;2922;53.482;10.006;2023-07-31T11:28:48;6.37;;;3.10;;
5791;SDS011;2922;53.482;10.006;2023-07-31T11:31:14;5.50;;;2.63;;
5791;SDS011;2922;53.482;10.006;2023-07-31T11:33:40;3.30;;;2.67;;
5791;SDS011;2922;53.482;10.006;2023-07-31T11:36:05;5.87;;;2.60;;
5791;SDS011;2922;53.482;10.006;2023-07-31T11:38:39;6.20;;;4.00;;
5791;SDS011;2922;53.482;10.006;2023-07-31T11:41:04;7.47;;;3.40;;
5791;SDS011;2922;53.482;10.006;2023-07-31T11:43:33;5.57;;;2.90;;
5791;SDS011;2922;53.482;10.006;2023-07-31T11:46:01;4.63;;;2.87;;
5791;SDS011;2922;53.482;10.006;2023-07-31T11:48:28;4.33;;;2.43;;
5791;SDS011;2922;53.482;10.006;2023-07-31T11:50:58;3.27;;;2.17;;
5791;SDS011;2922;53.482;10.006;2023-07-31T11:56:10;5.17;;;2.77;;
5791;SDS011;2922;53.482;10.006;2023-07-31T11:58:38;6.07;;;2.40;;
5791;SDS011;2922;53.482;10.006;2023-07-31T12:01:05;5.27;;;2.37;;
5791;SDS011;2922;53.482;10.006;2023-07-31T12:03:32;4.70;;;2.37;;
5791;SDS011;2922;53.482;10.006;2023-07-31T12:05:59;2.10;;;1.83;;
5791;SDS011;2922;53.482;10.006;2023-07-31T12:08:25;2.97;;;2.00;;
5791;SDS011;2922;53.482;10.006;2023-07-31T12:10:51;2.93;;;1.70;;
5791;SDS011;2922;53.482;10.006;2023-07-31T12:13:24;1.67;;;1.40;;
5791;SDS011;2922;53.482;10.006;2023-07-31T12:15:55;2.07;;;1.43;;
5791;SDS011;2922;53.482;10.006;2023-07-31T12:18:22;2.50;;;1.40;;
5791;SDS011;2922;53.482;10.006;2023-07-31T12:20:55;4.50;;;2.03;;
5791;SDS011;2922;53.482;10.006;2023-07-31T12:23:25;2.23;;;1.60;;
5791;SDS011;2922;53.482;10.006;2023-07-31T12:26:02;2.17;;;1.30;;
5791;SDS011;2922;53.482;10.006;2023-07-31T12:28:28;1.77;;;1.60;;
5791;SDS011;2922;53.482;10.006;2023-07-31T12:30:56;1.53;;;1.10;;
5791;SDS011;2922;53.482;10.006;2023-07-31T12:33:29;2.00;;;1.40;;
5791;SDS011;2922;53.482;10.006;2023-07-31T12:36:00;2.83;;;1.80;;
5791;SDS011;2922;53.482;10.006;2023-07-31T12:38:27;1.43;;;1.27;;
5791;SDS011;2922;53.482;10.006;2023-07-31T12:40:53;2.13;;;1.20;;
5791;SDS011;2922;53.482;10.006;2023-07-31T12:45:51;1.10;;;1.00;;
5791;SDS011;2922;53.482;10.006;2023-07-31T12:48:18;1.40;;;1.10;;
5791;SDS011;2922;53.482;10.006;2023-07-31T12:50:44;1.00;;;0.90;;
5791;SDS011;2922;53.482;10.006;2023-07-31T12:53:10;1.30;;;0.90;;
5791;SDS011;2922;53.482;10.006;2023-07-31T12:55:35;3.10;;;1.10;;
5791;SDS011;2922;53.482;10.006;2023-07-31T12:58:01;1.00;;;0.90;;
5791;SDS011;2922;53.482;10.006;2023-07-31T13:00:28;1.30;;;0.90;;
5791;SDS011;2922;53.482;10.006;2023-07-31T13:02:53;5.93;;;1.07;;
5791;SDS011;2922;53.482;10.006;2023-07-31T13:05:19;1.10;;;0.80;;
5791;SDS011;2922;53.482;10.006;2023-07-31T13:07:46;1.23;;;1.10;;
5791;SDS011;2922;53.482;10.006;2023-07-31T13:10:12;2.20;;;1.07;;
5791;SDS011;2922;53.482;10.006;2023-07-31T13:12:38;1.70;;;1.17;;
5791;SDS011;2922;53.482;10.006;2023-07-31T13:15:04;1.80;;;0.90;;
5791;SDS011;2922;53.482;10.006;2023-07-31T13:17:31;2.63;;;1.00;;
5791;SDS011;2922;53.482;10.006;2023-07-31T13:19:57;0.80;;;0.80;;
5791;SDS011;2922;53.482;10.006;2023-07-31T13:22:23;0.80;;;0.80;;
5791;SDS011;2922;53.482;10.006;2023-07-31T13:24:48;1.30;;;0.80;;
5791;SDS011;2922;53.482;10.006;2023-07-31T13:27:14;1.53;;;0.90;;
5791;SDS011;2922;53.482;10.006;2023-07-31T13:29:44;3.03;;;0.80;;
5791;SDS011;2922;53.482;10.006;2023-07-31T13:32:10;1.10;;;0.90;;
5791;SDS011;2922;53.482;10.006;2023-07-31T13:34:36;2.60;;;0.80;;
5791;SDS011;2922;53.482;10.006;2023-07-31T13:37:01;0.80;;;0.80;;
5791;SDS011;2922;53.482;10.006;2023-07-31T13:39:27;2.90;;;0.93;;
5791;SDS011;2922;53.482;10.006;2023-07-31T13:41:53;1.47;;;1.10;;
5791;SDS011;2922;53.482;10.006;2023-07-31T13:44:18;0.80;;;0.80;;
5791;SDS011;2922;53.482;10.006;2023-07-31T13:46:44;0.90;;;0.70;;
5791;SDS011;2922;53.482;10.006;2023-07-31T13:49:09;0.80;;;0.80;;
5791;SDS011;2922;53.482;10.006;2023-07-31T13:51:35;1.30;;;0.80;;
5791;SDS011;2922;53.482;10.006;2023-07-31T13:54:01;1.07;;;0.80;;
5791;SDS011;2922;53.482;10.006;2023-07-31T13:56:26;1.27;;;0.80;;
5791;SDS011;2922;53.482;10.006;2023-07-31T13:58:52;1.97;;;0.73;;
5791;SDS011;2922;53.482;10.006;2023-07-31T14:01:18;1.00;;;0.70;;
5791;SDS011;2922;53.482;10.006;2023-07-31T14:03:43;0.93;;;0.83;;
5791;SDS011;2922;53.482;10.006;2023-07-31T14:06:09;2.27;;;0.70;;
5791;SDS011;2922;53.482;10.006;2023-07-31T14:08:34;0.80;;;0.70;;
5791;SDS011;2922;53.482;10.006;2023-07-31T14:11:00;1.00;;;0.60;;
5791;SDS011;2922;53.482;10.006;2023-07-31T14:13:25;0.70;;;0.60;;
5791;SDS011;2922;53.482;10.006;2023-07-31T14:15:51;1.80;;;0.80;;
5791;SDS011;2922;53.482;10.006;2023-07-31T14:18:18;1.60;;;0.87;;
5791;SDS011;2922;53.482;10.006;2023-07-31T14:20:43;2.93;;;0.70;;
5791;SDS011;2922;53.482;10.006;2023-07-31T14:23:09;2.07;;;0.70;;
5791;SDS011;2922;53.482;10.006;2023-07-31T14:25:34;3.00;;;1.23;;
5791;SDS011;2922;53.482;10.006;2023-07-31T14:28:00;2.40;;;0.90;;
5791;SDS011;2922;53.482;10.006;2023-07-31T14:30:25;1.60;;;1.03;;
5791;SDS011;2922;53.482;10.006;2023-07-31T14:32:51;1.20;;;1.10;;
5791;SDS011;2922;53.482;10.006;2023-07-31T14:35:17;1.20;;;0.90;;
5791;SDS011;2922;53.482;10.006;2023-07-31T14:38:03;1.37;;;1.00;;
5791;SDS011;2922;53.482;10.006;2023-07-31T14:40:29;1.20;;;1.00;;
5791;SDS011;2922;53.482;10.006;2023-07-31T14:42:54;1.40;;;1.00;;
5791;SDS011;2922;53.482;10.006;2023-07-31T14:45:20;1.67;;;1.10;;
5791;SDS011;2922;53.482;10.006;2023-07-31T14:47:45;1.10;;;1.00;;
5791;SDS011;2922;53.482;10.006;2023-07-31T14:50:11;0.83;;;0.83;;
5791;SDS011;2922;53.482;10.006;2023-07-31T14:52:37;1.77;;;1.40;;
5791;SDS011;2922;53.482;10.006;2023-07-31T14:55:03;2.20;;;1.00;;
5791;SDS011;2922;53.482;10.006;2023-07-31T14:57:28;1.73;;;1.30;;
5791;SDS011;2922;53.482;10.006;2023-07-31T14:59:54;1.10;;;1.00;;
5791;SDS011;2922;53.482;10.006;2023-07-31T15:02:19;4.73;;;1.10;;
5791;SDS011;2922;53.482;10.006;2023-07-31T15:04:46;1.20;;;1.10;;
5791;SDS011;2922;53.482;10.006;2023-07-31T15:07:11;2.53;;;1.07;;
5791;SDS011;2922;53.482;10.006;2023-07-31T15:09:38;1.23;;;1.10;;
5791;SDS011;2922;53.482;10.006;2023-07-31T15:12:04;4.60;;;1.00;;